sensor_id;sensor_type;location;lat;lon;timestamp;pressure;altitude;pressure_sealevel;temperature;humidity
76611;BME280;65503;48.534;9.062;2023-06-10T00:00:03;96570.97;;;20.68;47.13
76611;BME280;65503;48.534;9.062;2023-06-10T00:02:32;96568.09;;;20.55;47.67
76611;BME280;65503;48.534;9.062;2023-06-10T00:04:58;96569.50;;;20.39;48.06
76611;BME280;65503;48.534;9.062;2023-06-10T00:07:25;96565.56;;;20.23;49.22
76611;BME280;65503;48.534;9.062;2023-06-10T00:09:51;96565.78;;;20.13;49.27
76611;BME280;65503;48.534;9.062;2023-06-10T00:12:18;96569.16;;;20.05;50.22
76611;BME280;65503;48.534;9.062;2023-06-10T00:14:46;96565.59;;;19.96;50.24
76611;BME280;65503;48.534;9.062;2023-06-10T00:17:17;96570.94;;;19.96;50.33
76611;BME280;65503;48.534;9.062;2023-06-10T00:19:46;96571.75;;;19.96;50.55
76611;BME280;65503;48.534;9.062;2023-06-10T00:22:13;96569.47;;;19.90;51.14
76611;BME280;65503;48.534;9.062;2023-06-10T00:24:40;96568.09;;;19.78;51.57
76611;BME280;65503;48.534;9.062;2023-06-10T00:27:08;96565.63;;;19.68;51.74
76611;BME280;65503;48.534;9.062;2023-06-10T00:29:34;96575.72;;;19.71;51.96
76611;BME280;65503;48.534;9.062;2023-06-10T00:32:01;96567.41;;;19.73;52.24
76611;BME280;65503;48.534;9.062;2023-06-10T00:34:28;96561.28;;;19.72;52.23
76611;BME280;65503;48.534;9.062;2023-06-10T00:36:55;96559.31;;;19.64;52.36
76611;BME280;65503;48.534;9.062;2023-06-10T00:39:21;96574.44;;;19.55;53.06
76611;BME280;65503;48.534;9.062;2023-06-10T00:41:48;96569.97;;;19.51;53.79
76611;BME280;65503;48.534;9.062;2023-06-10T00:44:15;96572.75;;;19.46;53.69
76611;BME280;65503;48.534;9.062;2023-06-10T00:46:42;96571.50;;;19.38;53.53
76611;BME280;65503;48.534;9.062;2023-06-10T00:49:09;96574.88;;;19.30;53.54
76611;BME280;65503;48.534;9.062;2023-06-10T00:51:36;96561.63;;;19.25;53.58
76611;BME280;65503;48.534;9.062;2023-06-10T00:54:03;96569.94;;;19.23;53.33
76611;BME280;65503;48.534;9.062;2023-06-10T00:56:31;96570.88;;;19.14;54.65
76611;BME280;65503;48.534;9.062;2023-06-10T00:58:58;96566.22;;;19.06;54.88
76611;BME280;65503;48.534;9.062;2023-06-10T01:01:25;96570.88;;;19.00;55.10
76611;BME280;65503;48.534;9.062;2023-06-10T01:03:53;96569.09;;;18.95;55.52
76611;BME280;65503;48.534;9.062;2023-06-10T01:06:55;96568.16;;;18.86;55.77
76611;BME280;65503;48.534;9.062;2023-06-10T01:09:59;96573.38;;;18.78;56.83
76611;BME280;65503;48.534;9.062;2023-06-10T01:12:39;96573.53;;;18.68;56.77
76611;BME280;65503;48.534;9.062;2023-06-10T01:15:08;96573.91;;;18.61;56.73
76611;BME280;65503;48.534;9.062;2023-06-10T01:17:57;96562.53;;;18.55;57.15
76611;BME280;65503;48.534;9.062;2023-06-10T01:20:29;96559.59;;;18.52;57.04
76611;BME280;65503;48.534;9.062;2023-06-10T01:22:56;96570.41;;;18.42;57.23
76611;BME280;65503;48.534;9.062;2023-06-10T01:25:26;96567.22;;;18.40;57.35
76611;BME280;65503;48.534;9.062;2023-06-10T01:28:21;96567.81;;;18.37;56.71
76611;BME280;65503;48.534;9.062;2023-06-10T01:33:27;96561.50;;;18.33;56.91
76611;BME280;65503;48.534;9.062;2023-06-10T01:35:56;96564.44;;;18.31;56.38
76611;BME280;65503;48.534;9.062;2023-06-10T01:38:25;96562.06;;;18.30;56.52
76611;BME280;65503;48.534;9.062;2023-06-10T01:40:53;96563.13;;;18.29;56.61
76611;BME280;65503;48.534;9.062;2023-06-10T01:43:21;96568.97;;;18.31;56.49
76611;BME280;65503;48.534;9.062;2023-06-10T01:45:48;96567.38;;;18.30;56.63
76611;BME280;65503;48.534;9.062;2023-06-10T01:48:16;96569.97;;;18.35;56.86
76611;BME280;65503;48.534;9.062;2023-06-10T01:50:42;96568.97;;;18.31;57.23
76611;BME280;65503;48.534;9.062;2023-06-10T01:53:10;96565.25;;;18.32;57.49
76611;BME280;65503;48.534;9.062;2023-06-10T01:55:36;96572.16;;;18.33;57.28
76611;BME280;65503;48.534;9.062;2023-06-10T01:58:03;96571.63;;;18.31;57.62
76611;BME280;65503;48.534;9.062;2023-06-10T02:00:30;96569.13;;;18.21;57.94
76611;BME280;65503;48.534;9.062;2023-06-10T02:02:57;96576.16;;;18.11;58.07
76611;BME280;65503;48.534;9.062;2023-06-10T02:05:24;96576.88;;;17.98;58.59
76611;BME280;65503;48.534;9.062;2023-06-10T02:07:51;96576.44;;;17.91;59.04
76611;BME280;65503;48.534;9.062;2023-06-10T02:10:17;96579.72;;;17.83;59.13
76611;BME280;65503;48.534;9.062;2023-06-10T02:12:44;96582.44;;;17.78;59.54
76611;BME280;65503;48.534;9.062;2023-06-10T02:15:10;96579.84;;;17.73;59.39
76611;BME280;65503;48.534;9.062;2023-06-10T02:17:37;96578.25;;;17.72;59.57
76611;BME280;65503;48.534;9.062;2023-06-10T02:20:05;96578.84;;;17.69;59.62
76611;BME280;65503;48.534;9.062;2023-06-10T02:22:33;96580.97;;;17.67;59.17
76611;BME280;65503;48.534;9.062;2023-06-10T02:25:00;96589.28;;;17.65;59.54
76611;BME280;65503;48.534;9.062;2023-06-10T02:27:26;96588.53;;;17.60;59.70
76611;BME280;65503;48.534;9.062;2023-06-10T02:29:53;96587.97;;;17.58;59.99
76611;BME280;65503;48.534;9.062;2023-06-10T02:32:20;96591.03;;;17.46;60.23
76611;BME280;65503;48.534;9.062;2023-06-10T02:34:47;96588.09;;;17.48;60.27
76611;BME280;65503;48.534;9.062;2023-06-10T02:37:15;96588.09;;;17.48;59.93
76611;BME280;65503;48.534;9.062;2023-06-10T02:39:42;96595.56;;;17.46;60.18
76611;BME280;65503;48.534;9.062;2023-06-10T02:42:09;96592.38;;;17.44;60.50
76611;BME280;65503;48.534;9.062;2023-06-10T02:44:36;96595.88;;;17.39;61.04
76611;BME280;65503;48.534;9.062;2023-06-10T02:47:03;96594.06;;;17.34;60.66
76611;BME280;65503;48.534;9.062;2023-06-10T02:49:30;96605.84;;;17.28;61.13
76611;BME280;65503;48.534;9.062;2023-06-10T02:51:56;96603.22;;;17.23;61.14
76611;BME280;65503;48.534;9.062;2023-06-10T02:54:23;96603.00;;;17.20;61.09
76611;BME280;65503;48.534;9.062;2023-06-10T02:56:51;96612.91;;;17.14;60.98
76611;BME280;65503;48.534;9.062;2023-06-10T02:59:18;96611.31;;;17.13;61.53
76611;BME280;65503;48.534;9.062;2023-06-10T03:01:47;96616.91;;;17.12;62.35
76611;BME280;65503;48.534;9.062;2023-06-10T03:04:13;96614.78;;;17.09;62.12
76611;BME280;65503;48.534;9.062;2023-06-10T03:06:41;96610.25;;;17.09;61.93
76611;BME280;65503;48.534;9.062;2023-06-10T03:09:08;96615.09;;;17.07;61.85
76611;BME280;65503;48.534;9.062;2023-06-10T03:11:34;96614.28;;;17.07;62.04
76611;BME280;65503;48.534;9.062;2023-06-10T03:14:01;96606.56;;;17.05;62.25
76611;BME280;65503;48.534;9.062;2023-06-10T03:16:28;96615.63;;;17.04;61.81
76611;BME280;65503;48.534;9.062;2023-06-10T03:18:56;96617.78;;;17.02;62.09
76611;BME280;65503;48.534;9.062;2023-06-10T03:21:23;96621.50;;;17.01;61.85
76611;BME280;65503;48.534;9.062;2023-06-10T03:23:50;96625.28;;;16.95;61.96
76611;BME280;65503;48.534;9.062;2023-06-10T03:26:16;96634.31;;;16.94;62.23
76611;BME280;65503;48.534;9.062;2023-06-10T03:28:43;96630.13;;;16.88;62.40
76611;BME280;65503;48.534;9.062;2023-06-10T03:31:09;96622.72;;;16.85;62.63
76611;BME280;65503;48.534;9.062;2023-06-10T03:33:36;96623.50;;;16.85;62.87
76611;BME280;65503;48.534;9.062;2023-06-10T03:36:04;96626.97;;;16.81;62.44
76611;BME280;65503;48.534;9.062;2023-06-10T03:38:30;96619.53;;;16.83;62.34
76611;BME280;65503;48.534;9.062;2023-06-10T03:40:57;96620.06;;;16.85;62.38
76611;BME280;65503;48.534;9.062;2023-06-10T03:43:23;96627.13;;;16.94;62.38
76611;BME280;65503;48.534;9.062;2023-06-10T03:45:50;96630.31;;;16.97;62.13
76611;BME280;65503;48.534;9.062;2023-06-10T03:48:16;96630.31;;;16.97;62.15
76611;BME280;65503;48.534;9.062;2023-06-10T03:50:43;96626.06;;;16.96;62.28
76611;BME280;65503;48.534;9.062;2023-06-10T03:53:10;96634.06;;;16.96;62.46
76611;BME280;65503;48.534;9.062;2023-06-10T03:55:36;96629.75;;;17.00;61.99
76611;BME280;65503;48.534;9.062;2023-06-10T03:58:03;96635.28;;;17.08;62.13
76611;BME280;65503;48.534;9.062;2023-06-10T04:00:29;96647.47;;;17.14;61.83
76611;BME280;65503;48.534;9.062;2023-06-10T04:02:56;96647.22;;;17.11;61.48
76611;BME280;65503;48.534;9.062;2023-06-10T04:05:24;96644.28;;;17.12;61.41
76611;BME280;65503;48.534;9.062;2023-06-10T04:07:51;96648.50;;;17.18;61.62
76611;BME280;65503;48.534;9.062;2023-06-10T04:10:17;96647.47;;;17.14;61.47
76611;BME280;65503;48.534;9.062;2023-06-10T04:12:44;96649.59;;;17.12;61.88
76611;BME280;65503;48.534;9.062;2023-06-10T04:15:11;96656.50;;;17.13;61.76
76611;BME280;65503;48.534;9.062;2023-06-10T04:17:38;96652.78;;;17.14;61.50
76611;BME280;65503;48.534;9.062;2023-06-10T04:20:05;96654.88;;;17.17;61.64
76611;BME280;65503;48.534;9.062;2023-06-10T04:22:33;96659.13;;;17.18;61.99
76611;BME280;65503;48.534;9.062;2023-06-10T04:25:00;96660.72;;;17.19;61.71
76611;BME280;65503;48.534;9.062;2023-06-10T04:27:27;96666.91;;;17.39;61.27
76611;BME280;65503;48.534;9.062;2023-06-10T04:29:53;96658.72;;;17.64;60.85
76611;BME280;65503;48.534;9.062;2023-06-10T04:32:20;96665.97;;;18.06;59.58
76611;BME280;65503;48.534;9.062;2023-06-10T04:34:48;96662.69;;;18.75;57.24
76611;BME280;65503;48.534;9.062;2023-06-10T04:37:15;96662.75;;;19.59;54.79
76611;BME280;65503;48.534;9.062;2023-06-10T04:39:41;96663.66;;;20.36;52.40
76611;BME280;65503;48.534;9.062;2023-06-10T04:42:08;96663.19;;;21.06;50.21
76611;BME280;65503;48.534;9.062;2023-06-10T04:44:35;96667.31;;;21.57;48.47
76611;BME280;65503;48.534;9.062;2023-06-10T04:47:01;96676.25;;;21.83;47.80
76611;BME280;65503;48.534;9.062;2023-06-10T04:49:28;96678.09;;;22.05;47.31
76611;BME280;65503;48.534;9.062;2023-06-10T04:51:56;96675.91;;;22.55;46.28
76611;BME280;65503;48.534;9.062;2023-06-10T04:54:22;96674.22;;;23.02;45.40
76611;BME280;65503;48.534;9.062;2023-06-10T04:56:48;96671.34;;;23.24;44.52
76611;BME280;65503;48.534;9.062;2023-06-10T04:59:15;96679.56;;;23.45;44.22
76611;BME280;65503;48.534;9.062;2023-06-10T05:01:42;96676.66;;;23.76;43.44
76611;BME280;65503;48.534;9.062;2023-06-10T05:04:08;96685.03;;;24.21;42.44
76611;BME280;65503;48.534;9.062;2023-06-10T05:06:35;96687.91;;;24.54;41.17
76611;BME280;65503;48.534;9.062;2023-06-10T05:09:02;96678.56;;;24.72;41.11
76611;BME280;65503;48.534;9.062;2023-06-10T05:11:29;96685.66;;;25.06;40.57
76611;BME280;65503;48.534;9.062;2023-06-10T05:13:55;96685.75;;;25.30;39.49
76611;BME280;65503;48.534;9.062;2023-06-10T05:16:22;96685.84;;;25.55;39.52
76611;BME280;65503;48.534;9.062;2023-06-10T05:18:48;96691.72;;;25.69;38.87
76611;BME280;65503;48.534;9.062;2023-06-10T05:21:17;96700.22;;;25.91;38.24
76611;BME280;65503;48.534;9.062;2023-06-10T05:23:43;96696.53;;;26.08;38.36
76611;BME280;65503;48.534;9.062;2023-06-10T05:26:10;96703.88;;;26.44;37.16
76611;BME280;65503;48.534;9.062;2023-06-10T05:28:37;96697.91;;;26.63;37.53
76611;BME280;65503;48.534;9.062;2023-06-10T05:31:03;96700.59;;;26.75;36.96
76611;BME280;65503;48.534;9.062;2023-06-10T05:33:30;96707.59;;;26.52;36.42
76611;BME280;65503;48.534;9.062;2023-06-10T05:35:56;96712.75;;;26.69;36.72
76611;BME280;65503;48.534;9.062;2023-06-10T05:38:23;96715.22;;;26.50;36.76
76611;BME280;65503;48.534;9.062;2023-06-10T05:40:49;96710.41;;;26.43;36.69
76611;BME280;65503;48.534;9.062;2023-06-10T05:43:16;96711.81;;;26.77;37.15
76611;BME280;65503;48.534;9.062;2023-06-10T05:45:43;96699.56;;;27.04;36.50
76611;BME280;65503;48.534;9.062;2023-06-10T05:48:09;96705.81;;;27.20;35.81
76611;BME280;65503;48.534;9.062;2023-06-10T05:50:36;96707.34;;;27.61;35.14
76611;BME280;65503;48.534;9.062;2023-06-10T05:53:05;96706.34;;;27.81;34.77
76611;BME280;65503;48.534;9.062;2023-06-10T05:55:33;96711.34;;;28.11;33.75
76611;BME280;65503;48.534;9.062;2023-06-10T05:58:00;96710.59;;;28.42;33.81
76611;BME280;65503;48.534;9.062;2023-06-10T06:00:27;96715.69;;;28.62;33.34
76611;BME280;65503;48.534;9.062;2023-06-10T06:02:54;96713.06;;;28.82;32.79
76611;BME280;65503;48.534;9.062;2023-06-10T06:05:20;96711.97;;;29.02;32.73
76611;BME280;65503;48.534;9.062;2023-06-10T06:07:47;96707.88;;;28.92;32.56
76611;BME280;65503;48.534;9.062;2023-06-10T06:10:14;96708.03;;;28.99;32.70
76611;BME280;65503;48.534;9.062;2023-06-10T06:12:40;96711.75;;;29.30;32.04
76611;BME280;65503;48.534;9.062;2023-06-10T06:15:07;96704.84;;;29.51;31.87
76611;BME280;65503;48.534;9.062;2023-06-10T06:17:35;96711.84;;;29.72;31.80
76611;BME280;65503;48.534;9.062;2023-06-10T06:20:03;96712.81;;;29.83;31.67
76611;BME280;65503;48.534;9.062;2023-06-10T06:22:29;96711.09;;;29.94;31.95
76611;BME280;65503;48.534;9.062;2023-06-10T06:24:56;96703.28;;;30.12;31.46
76611;BME280;65503;48.534;9.062;2023-06-10T06:27:22;96712.84;;;30.28;30.70
76611;BME280;65503;48.534;9.062;2023-06-10T06:29:49;96712.28;;;29.54;32.28
76611;BME280;65503;48.534;9.062;2023-06-10T06:32:17;96708.31;;;30.13;31.45
76611;BME280;65503;48.534;9.062;2023-06-10T06:34:44;96710.78;;;30.45;30.65
76611;BME280;65503;48.534;9.062;2023-06-10T06:37:11;96717.09;;;30.75;30.89
76611;BME280;65503;48.534;9.062;2023-06-10T06:39:37;96721.47;;;30.83;30.75
76611;BME280;65503;48.534;9.062;2023-06-10T06:42:04;96727.00;;;30.90;30.70
76611;BME280;65503;48.534;9.062;2023-06-10T06:44:32;96728.38;;;30.77;30.41
76611;BME280;65503;48.534;9.062;2023-06-10T06:46:58;96726.41;;;30.74;30.58
76611;BME280;65503;48.534;9.062;2023-06-10T06:49:24;96721.78;;;30.52;30.96
76611;BME280;65503;48.534;9.062;2023-06-10T06:51:51;96721.22;;;30.43;31.69
76611;BME280;65503;48.534;9.062;2023-06-10T06:54:17;96723.66;;;30.48;31.75
76611;BME280;65503;48.534;9.062;2023-06-10T06:56:44;96715.94;;;30.27;32.15
76611;BME280;65503;48.534;9.062;2023-06-10T06:59:10;96724.06;;;30.04;32.16
76611;BME280;65503;48.534;9.062;2023-06-10T07:01:40;96723.22;;;30.46;31.80
76611;BME280;65503;48.534;9.062;2023-06-10T07:04:06;96720.94;;;31.00;31.19
76611;BME280;65503;48.534;9.062;2023-06-10T07:06:33;96723.38;;;30.53;31.40
76611;BME280;65503;48.534;9.062;2023-06-10T07:09:04;96723.78;;;31.07;31.50
76611;BME280;65503;48.534;9.062;2023-06-10T07:11:31;96719.81;;;30.75;31.96
76611;BME280;65503;48.534;9.062;2023-06-10T07:13:57;96717.22;;;31.12;31.34
76611;BME280;65503;48.534;9.062;2023-06-10T07:16:24;96717.28;;;31.15;31.37
76611;BME280;65503;48.534;9.062;2023-06-10T07:18:50;96718.47;;;31.48;31.49
76611;BME280;65503;48.534;9.062;2023-06-10T07:21:17;96714.78;;;30.77;31.73
76611;BME280;65503;48.534;9.062;2023-06-10T07:23:43;96714.91;;;30.58;32.11
76611;BME280;65503;48.534;9.062;2023-06-10T07:26:11;96713.38;;;30.37;32.52
76611;BME280;65503;48.534;9.062;2023-06-10T07:28:40;96719.91;;;30.33;33.05
76611;BME280;65503;48.534;9.062;2023-06-10T07:31:07;96716.59;;;30.20;32.71
76611;BME280;65503;48.534;9.062;2023-06-10T07:33:34;96714.53;;;29.91;32.84
76611;BME280;65503;48.534;9.062;2023-06-10T07:36:01;96713.00;;;29.51;34.19
76611;BME280;65503;48.534;9.062;2023-06-10T07:38:27;96714.84;;;29.47;33.74
76611;BME280;65503;48.534;9.062;2023-06-10T07:40:53;96711.91;;;28.83;34.18
76611;BME280;65503;48.534;9.062;2023-06-10T07:43:20;96714.50;;;28.75;35.76
76611;BME280;65503;48.534;9.062;2023-06-10T07:45:47;96711.34;;;28.73;34.91
76611;BME280;65503;48.534;9.062;2023-06-10T07:48:13;96704.03;;;28.27;35.86
76611;BME280;65503;48.534;9.062;2023-06-10T07:50:40;96709.19;;;28.48;35.41
76611;BME280;65503;48.534;9.062;2023-06-10T07:53:06;96713.59;;;29.83;33.88
76611;BME280;65503;48.534;9.062;2023-06-10T07:55:33;96707.91;;;30.11;33.71
76611;BME280;65503;48.534;9.062;2023-06-10T07:58:00;96709.63;;;29.77;33.62
76611;BME280;65503;48.534;9.062;2023-06-10T08:00:26;96707.91;;;30.11;33.04
76611;BME280;65503;48.534;9.062;2023-06-10T08:02:53;96713.63;;;30.78;32.02
76611;BME280;65503;48.534;9.062;2023-06-10T08:05:19;96711.75;;;30.56;31.97
76611;BME280;65503;48.534;9.062;2023-06-10T08:07:47;96707.69;;;30.99;31.60
76611;BME280;65503;48.534;9.062;2023-06-10T08:10:13;96707.13;;;30.11;32.22
76611;BME280;65503;48.534;9.062;2023-06-10T08:12:40;96703.56;;;30.29;31.92
76611;BME280;65503;48.534;9.062;2023-06-10T08:15:07;96703.03;;;30.99;31.33
76611;BME280;65503;48.534;9.062;2023-06-10T08:17:34;96710.78;;;30.45;32.20
76611;BME280;65503;48.534;9.062;2023-06-10T08:20:01;96704.28;;;29.62;32.50
76611;BME280;65503;48.534;9.062;2023-06-10T08:22:27;96695.97;;;28.46;34.81
76611;BME280;65503;48.534;9.062;2023-06-10T08:24:55;96697.97;;;29.00;34.25
76611;BME280;65503;48.534;9.062;2023-06-10T08:27:22;96690.44;;;29.47;33.19
76611;BME280;65503;48.534;9.062;2023-06-10T08:29:49;96691.47;;;29.62;33.84
76611;BME280;65503;48.534;9.062;2023-06-10T08:32:16;96700.06;;;30.06;32.69
76611;BME280;65503;48.534;9.062;2023-06-10T08:34:42;96706.72;;;30.84;31.87
76611;BME280;65503;48.534;9.062;2023-06-10T08:37:09;96699.59;;;29.81;32.77
76611;BME280;65503;48.534;9.062;2023-06-10T08:39:36;96703.84;;;29.21;33.51
76611;BME280;65503;48.534;9.062;2023-06-10T08:44:49;96703.78;;;28.83;34.17
76611;BME280;65503;48.534;9.062;2023-06-10T08:47:19;96708.28;;;29.10;34.03
76611;BME280;65503;48.534;9.062;2023-06-10T08:49:48;96698.81;;;29.81;33.01
76611;BME280;65503;48.534;9.062;2023-06-10T08:52:20;96704.59;;;30.21;32.47
76611;BME280;65503;48.534;9.062;2023-06-10T08:55:10;96701.31;;;30.35;32.23
76611;BME280;65503;48.534;9.062;2023-06-10T08:57:38;96699.53;;;29.78;32.95
76611;BME280;65503;48.534;9.062;2023-06-10T09:00:05;96701.69;;;30.56;32.51
76611;BME280;65503;48.534;9.062;2023-06-10T09:02:34;96707.78;;;30.50;31.42
76611;BME280;65503;48.534;9.062;2023-06-10T09:05:05;96694.88;;;29.36;33.81
76611;BME280;65503;48.534;9.062;2023-06-10T09:07:31;96694.16;;;29.39;33.64
76611;BME280;65503;48.534;9.062;2023-06-10T09:10:00;96697.13;;;29.73;33.78
76611;BME280;65503;48.534;9.062;2023-06-10T09:12:29;96694.34;;;28.42;34.53
76611;BME280;65503;48.534;9.062;2023-06-10T09:14:56;96685.56;;;28.64;34.65
76611;BME280;65503;48.534;9.062;2023-06-10T09:17:23;96696.31;;;30.14;32.82
76611;BME280;65503;48.534;9.062;2023-06-10T09:19:55;96696.41;;;29.76;33.57
76611;BME280;65503;48.534;9.062;2023-06-10T09:22:23;96690.19;;;30.17;32.09
76611;BME280;65503;48.534;9.062;2023-06-10T09:25:33;96696.66;;;28.74;34.93
76611;BME280;65503;48.534;9.062;2023-06-10T09:28:13;96692.47;;;28.61;33.86
76611;BME280;65503;48.534;9.062;2023-06-10T09:30:46;96692.47;;;28.96;34.63
76611;BME280;65503;48.534;9.062;2023-06-10T09:33:14;96686.16;;;29.27;33.30
76611;BME280;65503;48.534;9.062;2023-06-10T09:35:48;96682.75;;;29.91;33.72
76611;BME280;65503;48.534;9.062;2023-06-10T09:38:20;96686.09;;;30.30;32.05
76611;BME280;65503;48.534;9.062;2023-06-10T09:40:49;96682.44;;;30.19;32.14
76611;BME280;65503;48.534;9.062;2023-06-10T09:43:42;96686.47;;;30.52;32.62
76611;BME280;65503;48.534;9.062;2023-06-10T09:46:19;96685.38;;;30.33;32.43
76611;BME280;65503;48.534;9.062;2023-06-10T09:49:08;96698.91;;;30.30;31.46
76611;BME280;65503;48.534;9.062;2023-06-10T09:52:29;96688.44;;;30.55;31.32
76611;BME280;65503;48.534;9.062;2023-06-10T09:59:03;96692.41;;;29.12;34.18
76611;BME280;65503;48.534;9.062;2023-06-10T10:02:03;96674.25;;;28.77;34.05
76611;BME280;65503;48.534;9.062;2023-06-10T10:05:06;96678.59;;;28.31;34.82
76611;BME280;65503;48.534;9.062;2023-06-10T10:07:33;96680.03;;;28.60;33.99
76611;BME280;65503;48.534;9.062;2023-06-10T10:10:00;96667.81;;;28.66;34.21
76611;BME280;65503;48.534;9.062;2023-06-10T10:12:26;96676.06;;;28.89;33.55
76611;BME280;65503;48.534;9.062;2023-06-10T10:14:55;96676.28;;;29.57;33.29
76611;BME280;65503;48.534;9.062;2023-06-10T10:17:23;96669.53;;;29.90;31.99
76611;BME280;65503;48.534;9.062;2023-06-10T10:19:56;96679.63;;;30.38;31.97
76611;BME280;65503;48.534;9.062;2023-06-10T10:22:31;96673.25;;;29.82;32.56
76611;BME280;65503;48.534;9.062;2023-06-10T10:25:02;96672.69;;;29.92;31.32
76611;BME280;65503;48.534;9.062;2023-06-10T10:27:59;96673.00;;;28.09;34.59
76611;BME280;65503;48.534;9.062;2023-06-10T10:30:29;96666.91;;;28.12;32.69
76611;BME280;65503;48.534;9.062;2023-06-10T10:33:36;96664.50;;;28.57;33.01
76611;BME280;65503;48.534;9.062;2023-06-10T10:36:07;96670.88;;;29.57;32.15
76611;BME280;65503;48.534;9.062;2023-06-10T10:38:35;96664.56;;;29.73;32.29
76611;BME280;65503;48.534;9.062;2023-06-10T10:41:02;96664.22;;;29.32;32.72
76611;BME280;65503;48.534;9.062;2023-06-10T10:43:30;96671.50;;;29.70;32.27
76611;BME280;65503;48.534;9.062;2023-06-10T10:46:16;96664.47;;;29.46;32.07
76611;BME280;65503;48.534;9.062;2023-06-10T10:48:44;96654.72;;;29.65;31.69
76611;BME280;65503;48.534;9.062;2023-06-10T10:51:11;96659.00;;;29.66;32.18
76611;BME280;65503;48.534;9.062;2023-06-10T10:53:38;96673.09;;;29.94;31.50
76611;BME280;65503;48.534;9.062;2023-06-10T10:56:13;96658.09;;;30.00;32.39
76611;BME280;65503;48.534;9.062;2023-06-10T10:58:40;96664.13;;;29.48;31.27
76611;BME280;65503;48.534;9.062;2023-06-10T11:01:14;96656.13;;;28.62;32.91
76611;BME280;65503;48.534;9.062;2023-06-10T11:03:44;96661.50;;;29.32;32.94
76611;BME280;65503;48.534;9.062;2023-06-10T11:06:15;96655.88;;;29.64;31.04
76611;BME280;65503;48.534;9.062;2023-06-10T11:11:24;96674.47;;;30.53;29.60
76611;BME280;65503;48.534;9.062;2023-06-10T11:14:06;96663.53;;;29.00;32.05
76611;BME280;65503;48.534;9.062;2023-06-10T11:16:41;96661.31;;;29.25;31.93
76611;BME280;65503;48.534;9.062;2023-06-10T11:19:09;96654.03;;;29.48;31.54
76611;BME280;65503;48.534;9.062;2023-06-10T11:22:03;96654.09;;;29.94;30.85
76611;BME280;65503;48.534;9.062;2023-06-10T11:24:30;96647.69;;;29.83;30.42
76611;BME280;65503;48.534;9.062;2023-06-10T11:27:18;96654.06;;;30.39;30.78
76611;BME280;65503;48.534;9.062;2023-06-10T11:32:34;96651.53;;;30.80;30.08
76611;BME280;65503;48.534;9.062;2023-06-10T11:35:05;96648.53;;;29.87;31.52
76611;BME280;65503;48.534;9.062;2023-06-10T11:37:33;96649.69;;;31.17;29.05
76611;BME280;65503;48.534;9.062;2023-06-10T11:40:00;96643.81;;;31.12;29.36
76611;BME280;65503;48.534;9.062;2023-06-10T11:42:27;96648.72;;;31.66;28.17
76611;BME280;65503;48.534;9.062;2023-06-10T11:44:54;96647.19;;;32.13;27.05
76611;BME280;65503;48.534;9.062;2023-06-10T11:47:21;96645.03;;;32.36;27.46
76611;BME280;65503;48.534;9.062;2023-06-10T11:49:58;96635.31;;;31.91;26.81
76611;BME280;65503;48.534;9.062;2023-06-10T11:52:29;96639.38;;;31.67;27.49
76611;BME280;65503;48.534;9.062;2023-06-10T11:54:58;96638.81;;;31.17;28.31
76611;BME280;65503;48.534;9.062;2023-06-10T11:57:25;96644.69;;;31.19;28.33
76611;BME280;65503;48.534;9.062;2023-06-10T11:59:52;96643.72;;;30.49;28.29
76611;BME280;65503;48.534;9.062;2023-06-10T12:02:18;96635.22;;;30.01;29.72
76611;BME280;65503;48.534;9.062;2023-06-10T12:04:45;96627.28;;;30.42;29.86
76611;BME280;65503;48.534;9.062;2023-06-10T12:07:18;96633.81;;;29.88;30.00
76611;BME280;65503;48.534;9.062;2023-06-10T12:09:46;96632.50;;;30.01;30.06
76611;BME280;65503;48.534;9.062;2023-06-10T12:12:12;96631.19;;;30.41;29.17
76611;BME280;65503;48.534;9.062;2023-06-10T12:14:52;96629.28;;;30.45;29.09
76611;BME280;65503;48.534;9.062;2023-06-10T12:20:09;96636.16;;;30.91;29.63
76611;BME280;65503;48.534;9.062;2023-06-10T12:22:50;96623.47;;;31.73;28.22
76611;BME280;65503;48.534;9.062;2023-06-10T12:25:16;96622.97;;;32.52;26.31
76611;BME280;65503;48.534;9.062;2023-06-10T12:27:51;96628.31;;;33.10;25.94
76611;BME280;65503;48.534;9.062;2023-06-10T12:30:19;96628.66;;;32.29;26.30
76611;BME280;65503;48.534;9.062;2023-06-10T12:32:47;96633.63;;;31.39;27.34
76611;BME280;65503;48.534;9.062;2023-06-10T12:35:17;96632.88;;;30.26;28.62
76611;BME280;65503;48.534;9.062;2023-06-10T12:38:04;96620.41;;;29.76;29.96
76611;BME280;65503;48.534;9.062;2023-06-10T12:40:41;96617.97;;;29.90;28.40
76611;BME280;65503;48.534;9.062;2023-06-10T12:43:09;96624.06;;;30.06;29.14
76611;BME280;65503;48.534;9.062;2023-06-10T12:45:37;96619.47;;;30.63;28.33
76611;BME280;65503;48.534;9.062;2023-06-10T12:50:44;96617.25;;;31.02;27.65
76611;BME280;65503;48.534;9.062;2023-06-10T12:53:11;96615.16;;;31.22;25.88
76611;BME280;65503;48.534;9.062;2023-06-10T12:55:38;96605.09;;;31.59;26.11
76611;BME280;65503;48.534;9.062;2023-06-10T12:58:05;96611.50;;;31.77;26.19
76611;BME280;65503;48.534;9.062;2023-06-10T13:00:31;96615.66;;;30.97;27.02
76611;BME280;65503;48.534;9.062;2023-06-10T13:03:01;96617.19;;;30.12;27.59
76611;BME280;65503;48.534;9.062;2023-06-10T13:05:28;96605.69;;;30.78;27.71
76611;BME280;65503;48.534;9.062;2023-06-10T13:07:55;96609.78;;;30.95;26.70
76611;BME280;65503;48.534;9.062;2023-06-10T13:10:22;96605.94;;;30.96;27.30
76611;BME280;65503;48.534;9.062;2023-06-10T13:12:52;96590.66;;;31.18;27.71
76611;BME280;65503;48.534;9.062;2023-06-10T13:15:18;96606.06;;;31.07;28.51
76611;BME280;65503;48.534;9.062;2023-06-10T13:17:45;96596.28;;;31.36;28.37
76611;BME280;65503;48.534;9.062;2023-06-10T13:20:16;96599.88;;;31.43;27.05
76611;BME280;65503;48.534;9.062;2023-06-10T13:22:43;96586.50;;;31.68;27.08
76611;BME280;65503;48.534;9.062;2023-06-10T13:25:09;96597.06;;;32.21;26.21
76611;BME280;65503;48.534;9.062;2023-06-10T13:27:37;96596.59;;;31.64;27.88
76611;BME280;65503;48.534;9.062;2023-06-10T13:30:09;96595.06;;;30.96;27.67